Time;durP1;ratioP1;P1;durP2;ratioP2;P2;SDS_P1;SDS_P2;PMS_P1;PMS_P2;Temp;Humidity;BMP_temperature;BMP_pressure;BME280_temperature;BME280_humidity;BME280_pressure;Samples;Min_cycle;Max_cycle;Signal;HPM_P1;HPM_P2
2021/12/22 00:01:38;;;;;;;27.15;19.00;;;-2.10;99.90;;;;;;5004892;28;88167;-44
2021/12/22 00:04:43;;;;;;;27.02;18.02;;;-2.10;99.90;;;;;;5004690;28;89957;-42
2021/12/22 00:07:19;;;;;;;21.58;18.35;;;-2.20;99.90;;;;;;5004234;28;88246;-42
2021/12/22 00:09:45;;;;;;;27.73;19.58;;;-2.20;99.90;;;;;;4968997;28;88481;-40
2021/12/22 00:12:12;;;;;;;24.60;18.50;;;-2.20;99.90;;;;;;5005422;28;88558;-45
2021/12/22 00:14:38;;;;;;;21.45;17.08;;;-2.20;99.90;;;;;;4986747;28;89775;-38
2021/12/22 00:17:04;;;;;;;18.63;16.65;;;-2.30;99.90;;;;;;4986305;28;88994;-43
2021/12/22 00:19:31;;;;;;;22.00;16.42;;;-2.30;99.90;;;;;;4968305;28;89126;-44
2021/12/22 00:21:56;;;;;;;20.48;16.60;;;-2.40;99.90;;;;;;5003204;28;88083;-42
2021/12/22 00:24:24;;;;;;;21.02;15.88;;;-2.50;99.90;;;;;;5006604;28;90610;-40
2021/12/22 00:26:50;;;;;;;23.63;18.00;;;-2.50;99.90;;;;;;5002644;28;90176;-40
2021/12/22 00:29:17;;;;;;;18.40;15.63;;;-2.60;99.90;;;;;;5003851;28;88627;-44
2021/12/22 00:31:57;;;;;;;19.23;15.40;;;-2.70;99.90;;;;;;5004712;28;87511;-41
2021/12/22 00:34:26;;;;;;;29.25;16.88;;;-2.70;99.90;;;;;;5008306;28;90370;-38
2021/12/22 00:36:57;;;;;;;22.13;15.90;;;-2.70;99.90;;;;;;4991642;28;89665;-43
2021/12/22 00:39:23;;;;;;;22.60;16.95;;;-2.70;99.90;;;;;;4974034;28;88031;-43
2021/12/22 00:41:49;;;;;;;20.70;16.35;;;-2.70;99.90;;;;;;5006172;28;88009;-47
2021/12/22 00:44:15;;;;;;;19.15;15.30;;;-2.80;99.90;;;;;;4989888;28;90159;-37
2021/12/22 00:46:41;;;;;;;19.55;16.42;;;-2.80;99.90;;;;;;5007413;28;89059;-39
2021/12/22 00:49:07;;;;;;;21.23;14.43;;;-2.80;99.90;;;;;;5005364;28;88624;-41
2021/12/22 00:51:33;;;;;;;22.58;15.80;;;-2.90;99.90;;;;;;4986982;28;87853;-39
2021/12/22 00:53:59;;;;;;;21.42;15.43;;;-2.90;99.90;;;;;;5006109;28;89071;-42
2021/12/22 00:56:24;;;;;;;22.25;16.08;;;-2.90;99.90;;;;;;4988459;28;88054;-39
2021/12/22 00:58:50;;;;;;;17.98;15.75;;;-2.90;99.90;;;;;;5008007;28;87710;-42
2021/12/22 01:01:16;;;;;;;23.15;16.45;;;-3.00;99.90;;;;;;4990017;28;88808;-44
2021/12/22 01:03:42;;;;;;;23.73;15.55;;;-3.00;99.90;;;;;;4987050;28;88786;-42
2021/12/22 01:06:07;;;;;;;19.85;14.75;;;-3.00;99.90;;;;;;5004323;28;89133;-42
2021/12/22 01:08:33;;;;;;;23.33;14.90;;;-3.10;99.90;;;;;;5004839;28;88693;-41
2021/12/22 01:10:59;;;;;;;21.50;16.95;;;-3.10;99.90;;;;;;5006040;28;87975;-44
2021/12/22 01:13:25;;;;;;;20.05;15.98;;;-3.20;99.90;;;;;;5006053;28;90227;-44
2021/12/22 01:15:50;;;;;;;21.10;15.98;;;-3.20;99.90;;;;;;5005060;28;90514;-44
2021/12/22 01:18:28;;;;;;;20.75;17.05;;;-3.30;99.90;;;;;;5007948;28;87491;-38
2021/12/22 01:21:10;;;;;;;21.65;16.50;;;-3.30;99.90;;;;;;5006708;28;87814;-40
2021/12/22 01:23:51;;;;;;;22.58;15.93;;;-3.30;99.90;;;;;;5006252;28;89579;-41
2021/12/22 01:26:17;;;;;;;22.73;18.00;;;-3.30;99.90;;;;;;5006699;28;89183;-43
2021/12/22 01:28:43;;;;;;;25.75;17.02;;;-3.30;99.90;;;;;;5007415;28;88173;-40
2021/12/22 01:31:15;;;;;;;21.17;18.00;;;-3.30;99.90;;;;;;5008013;28;87825;-41
2021/12/22 01:33:41;;;;;;;23.67;18.98;;;-3.30;99.90;;;;;;5007033;28;90188;-43
2021/12/22 01:36:07;;;;;;;22.40;16.27;;;-3.30;99.90;;;;;;5005719;28;89148;-43
2021/12/22 01:38:43;;;;;;;18.17;16.25;;;-3.30;99.90;;;;;;4990302;28;87881;-46
2021/12/22 01:41:08;;;;;;;20.27;16.50;;;-3.40;99.90;;;;;;5006082;28;88149;-39
2021/12/22 01:43:34;;;;;;;23.88;17.23;;;-3.40;99.90;;;;;;5005941;28;91899;-39
2021/12/22 01:49:10;;;;;;;24.00;17.88;;;-3.50;99.90;;;;;;5006129;28;88659;-42
2021/12/22 01:51:41;;;;;;;24.73;18.00;;;-3.50;99.90;;;;;;4988959;28;88289;-44
2021/12/22 01:54:14;;;;;;;20.30;18.30;;;-3.50;99.90;;;;;;5006466;28;89259;-42
2021/12/22 01:56:39;;;;;;;24.35;17.60;;;-3.50;99.90;;;;;;5007059;28;88830;-39
2021/12/22 01:59:34;;;;;;;27.67;18.75;;;-3.60;99.90;;;;;;5005791;28;88236;-41
2021/12/22 02:02:00;;;;;;;21.33;17.13;;;-3.50;99.90;;;;;;5005719;28;88250;-43
2021/12/22 02:04:26;;;;;;;23.67;17.42;;;-3.60;99.90;;;;;;5006078;28;89918;-42
2021/12/22 02:06:52;;;;;;;22.98;18.02;;;-3.60;99.90;;;;;;5004294;28;88854;-42
2021/12/22 02:09:38;;;;;;;22.02;17.15;;;-3.60;99.90;;;;;;5005250;28;87914;-40
2021/12/22 02:12:06;;;;;;;28.48;18.27;;;-3.60;99.90;;;;;;5003440;28;87885;-47
2021/12/22 02:14:32;;;;;;;24.60;19.75;;;-3.60;99.90;;;;;;5005579;28;89004;-44
2021/12/22 02:17:14;;;;;;;26.98;17.80;;;-3.60;99.90;;;;;;5005826;28;90274;-42
2021/12/22 02:20:12;;;;;;;27.10;19.23;;;-3.60;99.90;;;;;;5006137;28;87940;-45
2021/12/22 02:22:39;;;;;;;;;;;-3.70;99.90;;;;;;4988044;28;88622;-42
2021/12/22 02:25:42;;;;;;;22.48;16.33;;;-3.70;99.90;;;;;;5007219;28;90056;-42
2021/12/22 02:28:31;;;;;;;22.15;17.90;;;-3.80;99.90;;;;;;5004237;28;89477;-43
2021/12/22 02:30:57;;;;;;;23.88;16.88;;;-3.80;99.90;;;;;;4986945;28;87820;-42
2021/12/22 02:38:39;;;;;;;33.33;19.92;;;-3.90;99.90;;;;;;5003647;28;88689;-41
2021/12/22 02:41:08;;;;;;;22.95;17.80;;;-3.90;99.90;;;;;;5002753;28;89971;-35
2021/12/22 02:50:11;;;;;;;21.42;16.42;;;-4.00;99.90;;;;;;4996222;28;89109;-40
2021/12/22 02:52:52;;;;;;;18.88;16.63;;;-4.00;99.90;;;;;;5000731;28;89663;-42
2021/12/22 02:55:20;;;;;;;21.20;17.40;;;-4.00;99.90;;;;;;5000583;28;90110;-38
2021/12/22 02:57:49;;;;;;;22.52;17.45;;;-4.00;99.90;;;;;;5000729;28;90424;-42
2021/12/22 03:00:46;;;;;;;25.38;18.25;;;-4.00;99.90;;;;;;5000666;28;89116;-32
2021/12/22 03:05:49;;;;;;;23.00;18.27;;;-4.00;99.90;;;;;;4999827;28;89873;-39
2021/12/22 03:08:15;;;;;;;22.65;17.98;;;-4.00;99.90;;;;;;5001142;28;90485;-35
2021/12/22 03:10:40;;;;;;;21.65;17.05;;;-4.00;99.90;;;;;;5000331;28;88958;-34
2021/12/22 03:13:06;;;;;;;24.70;19.38;;;-4.10;99.90;;;;;;5000836;28;88028;-39
2021/12/22 03:15:32;;;;;;;20.80;18.58;;;-4.00;99.90;;;;;;5000069;28;87395;-40
2021/12/22 03:17:58;;;;;;;22.30;16.42;;;-4.00;99.90;;;;;;5000061;28;90254;-44
2021/12/22 03:20:24;;;;;;;22.55;18.20;;;-4.00;99.90;;;;;;5000535;28;89112;-41
2021/12/22 03:22:50;;;;;;;26.33;17.33;;;-4.10;99.90;;;;;;5000338;28;88830;-37
2021/12/22 03:25:17;;;;;;;27.15;17.77;;;-4.10;99.90;;;;;;5001014;28;88766;-44
2021/12/22 03:27:45;;;;;;;20.52;17.52;;;-4.10;99.90;;;;;;5000360;28;90581;-38
2021/12/22 03:30:12;;;;;;;22.90;18.42;;;-4.10;99.90;;;;;;5000297;28;91508;-36
2021/12/22 03:32:38;;;;;;;24.55;17.95;;;-4.10;99.90;;;;;;4999881;28;88270;-42
2021/12/22 03:35:04;;;;;;;23.95;17.08;;;-4.20;99.90;;;;;;5000791;28;88973;-37
2021/12/22 03:37:30;;;;;;;21.30;16.77;;;-4.20;99.90;;;;;;5000748;28;90006;-38
2021/12/22 03:39:55;;;;;;;30.33;18.23;;;-4.20;99.90;;;;;;5000527;28;89837;-36
2021/12/22 03:42:21;;;;;;;23.17;17.60;;;-4.30;99.90;;;;;;5000361;28;88123;-36
2021/12/22 03:44:47;;;;;;;22.13;19.17;;;-4.30;99.90;;;;;;5000231;28;89981;-38
2021/12/22 03:47:12;;;;;;;28.65;19.08;;;-4.30;99.90;;;;;;5000691;28;90381;-37
2021/12/22 03:49:38;;;;;;;24.27;19.33;;;-4.30;99.90;;;;;;4999462;28;89810;-36
2021/12/22 03:52:05;;;;;;;24.77;19.67;;;-4.30;99.90;;;;;;5000539;28;88752;-38
2021/12/22 03:54:30;;;;;;;28.33;20.23;;;-4.30;99.90;;;;;;5000172;28;88767;-35
2021/12/22 03:56:56;;;;;;;27.23;21.23;;;-4.30;99.90;;;;;;4999671;28;90157;-36
2021/12/22 03:59:23;;;;;;;30.48;22.45;;;-4.20;99.90;;;;;;4982267;28;91214;-34
2021/12/22 04:01:49;;;;;;;27.45;22.70;;;-4.20;99.90;;;;;;4981816;28;88170;-38
2021/12/22 04:04:18;;;;;;;27.83;21.85;;;-4.20;99.90;;;;;;4999723;28;88415;-41
2021/12/22 04:06:45;;;;;;;30.02;21.88;;;-4.20;99.90;;;;;;5002169;28;90479;-41
2021/12/22 04:09:13;;;;;;;29.65;22.23;;;-4.20;99.90;;;;;;5003499;28;91490;-37
2021/12/22 04:11:39;;;;;;;30.58;22.60;;;-4.20;99.90;;;;;;5003040;28;87289;-41
2021/12/22 04:14:04;;;;;;;29.25;21.42;;;-4.20;99.90;;;;;;5003409;28;87340;-34
2021/12/22 04:16:30;;;;;;;30.63;20.77;;;-4.20;99.90;;;;;;5002148;28;89719;-34
2021/12/22 04:18:56;;;;;;;28.83;21.52;;;-4.20;99.90;;;;;;5002841;28;89735;-40
2021/12/22 04:21:21;;;;;;;31.35;22.70;;;-4.20;99.90;;;;;;5003326;28;87748;-37
2021/12/22 04:23:47;;;;;;;28.58;21.25;;;-4.30;99.90;;;;;;5003390;28;87565;-40
2021/12/22 04:26:13;;;;;;;28.25;22.15;;;-4.30;99.90;;;;;;5003728;28;90561;-38
2021/12/22 04:28:40;;;;;;;29.27;21.77;;;-4.30;99.90;;;;;;5003235;28;89571;-39
2021/12/22 04:31:06;;;;;;;30.00;21.63;;;-4.30;99.90;;;;;;5002609;28;89668;-34
2021/12/22 04:33:31;;;;;;;31.77;21.00;;;-4.30;99.90;;;;;;5003296;28;88791;-38
2021/12/22 04:35:57;;;;;;;29.42;20.73;;;-4.30;99.90;;;;;;5002626;28;90509;-40
2021/12/22 04:38:23;;;;;;;33.83;24.17;;;-4.20;99.90;;;;;;5003344;28;90059;-38
2021/12/22 04:40:49;;;;;;;33.53;21.80;;;-4.20;99.90;;;;;;5002791;28;87469;-39
2021/12/22 04:43:15;;;;;;;32.53;23.98;;;-4.20;99.90;;;;;;4985319;28;89290;-35
2021/12/22 04:45:41;;;;;;;32.85;22.23;;;-4.20;99.90;;;;;;5002927;28;90294;-38
2021/12/22 04:48:07;;;;;;;33.03;21.98;;;-4.20;99.90;;;;;;5002761;28;89614;-37
2021/12/22 04:50:33;;;;;;;34.97;24.73;;;-4.20;99.90;;;;;;5002820;28;87405;-39
2021/12/22 04:53:05;;;;;;;33.80;25.73;;;-4.10;99.90;;;;;;5003380;28;90061;-34
2021/12/22 04:55:31;;;;;;;29.63;23.48;;;-4.10;99.90;;;;;;5002901;28;90308;-43
2021/12/22 04:57:58;;;;;;;35.08;23.08;;;-4.20;99.90;;;;;;5002782;28;89745;-40
2021/12/22 05:00:27;;;;;;;33.97;22.85;;;-4.20;99.90;;;;;;5003429;28;88983;-34
2021/12/22 05:02:54;;;;;;;26.13;21.50;;;-4.10;99.90;;;;;;5002333;28;89086;-33
2021/12/22 05:05:20;;;;;;;32.83;24.05;;;-4.20;99.90;;;;;;5002621;28;90264;-36
2021/12/22 05:07:47;;;;;;;34.20;23.27;;;-4.20;99.90;;;;;;5002664;28;90033;-41
2021/12/22 05:10:14;;;;;;;31.25;21.65;;;-4.20;99.90;;;;;;5002677;28;89405;-39
2021/12/22 05:12:40;;;;;;;28.73;22.65;;;-4.20;99.90;;;;;;5002407;28;87320;-40
2021/12/22 05:15:06;;;;;;;30.98;24.27;;;-4.20;99.90;;;;;;5002389;28;90127;-37
2021/12/22 05:18:00;;;;;;;31.98;24.45;;;-4.20;99.90;;;;;;5001392;28;89608;-39
2021/12/22 05:20:24;;;;;;;26.85;20.75;;;-4.20;99.90;;;;;;5003180;28;88843;-34
2021/12/22 05:22:51;;;;;;;33.13;23.27;;;-4.20;99.90;;;;;;5002038;28;88927;-36
2021/12/22 05:25:16;;;;;;;27.52;21.58;;;-4.20;99.90;;;;;;5002196;28;90287;-39
2021/12/22 05:27:42;;;;;;;29.08;23.00;;;-4.20;99.90;;;;;;5002435;28;89544;-35
2021/12/22 05:30:10;;;;;;;31.75;22.50;;;-4.20;99.90;;;;;;5002002;28;88300;-37
2021/12/22 05:32:36;;;;;;;27.48;19.60;;;-4.20;99.90;;;;;;5002627;28;87509;-36
2021/12/22 05:35:05;;;;;;;30.45;23.17;;;-4.20;99.90;;;;;;4983813;28;90134;-36
2021/12/22 05:37:31;;;;;;;27.77;21.02;;;-4.20;99.90;;;;;;5001409;28;91590;-36
2021/12/22 05:39:56;;;;;;;31.55;22.70;;;-4.20;99.90;;;;;;5002040;28;88633;-38
2021/12/22 05:42:26;;;;;;;32.38;22.92;;;-4.20;99.90;;;;;;5002977;28;87373;-34
2021/12/22 05:44:52;;;;;;;25.35;20.30;;;-4.20;99.90;;;;;;5002682;28;90562;-39
2021/12/22 05:47:18;;;;;;;25.73;20.92;;;-4.20;99.90;;;;;;4984072;28;89686;-32
2021/12/22 05:49:45;;;;;;;29.10;22.13;;;-4.20;99.90;;;;;;5001484;28;87996;-40
2021/12/22 05:52:11;;;;;;;29.10;21.67;;;-4.20;99.90;;;;;;5001979;28;87833;-35
2021/12/22 05:54:37;;;;;;;33.55;22.48;;;-4.20;99.90;;;;;;5002107;28;90110;-36
2021/12/22 05:57:04;;;;;;;30.08;21.98;;;-4.20;99.90;;;;;;5000871;28;89796;-35
2021/12/22 05:59:30;;;;;;;29.05;21.17;;;-4.20;99.90;;;;;;5000545;28;89313;-36
2021/12/22 06:01:56;;;;;;;28.55;20.65;;;-4.20;99.90;;;;;;5000466;28;89315;-42
2021/12/22 06:04:21;;;;;;;31.75;21.98;;;-4.30;99.90;;;;;;5000734;28;90060;-40
2021/12/22 06:06:47;;;;;;;23.30;20.63;;;-4.30;99.90;;;;;;4999743;28;90175;-34
2021/12/22 06:09:12;;;;;;;25.20;20.48;;;-4.30;99.90;;;;;;5001465;28;90511;-38
2021/12/22 06:11:38;;;;;;;26.48;20.90;;;-4.30;99.90;;;;;;5000441;28;87799;-32
2021/12/22 06:14:03;;;;;;;28.58;20.40;;;-4.30;99.90;;;;;;4982141;28;90178;-43
2021/12/22 06:16:30;;;;;;;34.33;22.15;;;-4.30;99.90;;;;;;5000277;28;89790;-38
2021/12/22 06:19:00;;;;;;;27.60;19.55;;;-4.30;99.90;;;;;;5000698;28;90346;-37
2021/12/22 06:21:26;;;;;;;28.63;21.00;;;-4.30;99.90;;;;;;5001002;28;88952;-41
2021/12/22 06:23:52;;;;;;;30.60;20.15;;;-4.30;99.90;;;;;;5000388;28;90037;-37
2021/12/22 06:26:17;;;;;;;27.42;20.23;;;-4.20;99.90;;;;;;5000048;28;90904;-38
2021/12/22 06:28:43;;;;;;;31.60;21.08;;;-4.20;99.90;;;;;;5000255;28;88738;-40
2021/12/22 06:31:09;;;;;;;29.73;21.30;;;-4.20;99.90;;;;;;5000213;28;89440;-34
2021/12/22 06:33:35;;;;;;;27.55;21.10;;;-4.20;99.90;;;;;;5000310;28;90120;-37
2021/12/22 06:36:00;;;;;;;28.05;20.65;;;-4.20;99.90;;;;;;5000221;28;89960;-40
2021/12/22 06:38:26;;;;;;;30.80;21.60;;;-4.20;99.90;;;;;;4981856;28;89750;-40
2021/12/22 06:40:52;;;;;;;27.85;21.27;;;-4.20;99.90;;;;;;5000615;28;89165;-43
2021/12/22 06:43:18;;;;;;;24.50;20.13;;;-4.10;99.90;;;;;;5000123;28;90149;-38
2021/12/22 06:45:44;;;;;;;22.95;20.42;;;-4.10;99.90;;;;;;4999977;28;89483;-44
2021/12/22 06:48:10;;;;;;;31.50;22.27;;;-4.10;99.90;;;;;;5000481;28;89656;-38
2021/12/22 06:50:35;;;;;;;26.52;20.45;;;-4.10;99.90;;;;;;4999728;28;89477;-35
2021/12/22 06:53:01;;;;;;;27.20;21.35;;;-4.10;99.90;;;;;;4999984;28;90093;-37
2021/12/22 06:55:27;;;;;;;28.02;19.35;;;-4.10;99.90;;;;;;4999394;28;90687;-38
2021/12/22 06:57:53;;;;;;;28.55;19.48;;;-4.20;99.90;;;;;;4999355;28;90457;-42
2021/12/22 07:00:19;;;;;;;30.08;18.75;;;-4.20;99.90;;;;;;5000242;28;87507;-36
2021/12/22 07:02:45;;;;;;;23.33;19.75;;;-4.30;99.90;;;;;;4999458;28;91658;-36
2021/12/22 07:05:11;;;;;;;24.10;18.75;;;-4.30;99.90;;;;;;4999577;28;90273;-38
2021/12/22 07:07:38;;;;;;;31.25;17.98;;;-4.30;99.90;;;;;;5000048;28;89507;-35
2021/12/22 07:10:07;;;;;;;29.30;20.77;;;-4.30;99.90;;;;;;5000148;28;89556;-41
2021/12/22 07:12:34;;;;;;;28.73;19.77;;;-4.40;99.90;;;;;;4999243;28;90281;-41
2021/12/22 07:15:01;;;;;;;24.58;20.35;;;-4.40;99.90;;;;;;4999308;28;89904;-39
2021/12/22 07:17:26;;;;;;;24.75;19.30;;;-4.40;99.90;;;;;;5000035;28;89834;-34
2021/12/22 07:19:52;;;;;;;28.13;18.33;;;-4.40;99.90;;;;;;4998624;28;89992;-38
2021/12/22 07:22:18;;;;;;;26.98;19.02;;;-4.40;99.90;;;;;;5000130;28;90510;-39
2021/12/22 07:24:43;;;;;;;27.55;20.42;;;-4.40;99.90;;;;;;4999361;28;89762;-36
2021/12/22 07:27:09;;;;;;;30.45;20.88;;;-4.40;99.90;;;;;;4999493;28;90520;-43
2021/12/22 07:29:34;;;;;;;22.83;18.23;;;-4.40;99.90;;;;;;4999630;28;88508;-39
2021/12/22 07:32:00;;;;;;;27.80;20.02;;;-4.40;99.90;;;;;;4998496;28;90098;-44
2021/12/22 07:34:38;;;;;;;27.77;20.10;;;-4.40;99.90;;;;;;4999318;28;89618;-32
2021/12/22 07:37:13;;;;;;;33.03;20.63;;;-4.50;99.90;;;;;;4899085;27;90235;-38
2021/12/22 07:39:39;;;;;;;24.08;17.50;;;-4.50;99.90;;;;;;4999798;28;89593;-36
2021/12/22 07:42:05;;;;;;;25.45;20.65;;;-4.50;99.90;;;;;;4998546;28;90273;-40
2021/12/22 07:44:30;;;;;;;24.23;18.08;;;-4.50;99.90;;;;;;4997898;28;91196;-38
2021/12/22 07:46:56;;;;;;;26.73;19.65;;;-4.50;99.90;;;;;;4999399;28;89316;-38
2021/12/22 07:49:21;;;;;;;26.55;20.27;;;-4.50;99.90;;;;;;4999228;28;88096;-38
2021/12/22 07:51:47;;;;;;;33.13;19.08;;;-4.50;99.90;;;;;;4998938;28;90249;-36
2021/12/22 07:54:12;;;;;;;25.20;18.30;;;-4.50;99.90;;;;;;4999187;28;89915;-34
2021/12/22 07:56:38;;;;;;;32.35;20.98;;;-4.40;99.90;;;;;;4998947;28;89553;-40
2021/12/22 07:59:03;;;;;;;31.25;21.15;;;-4.40;99.90;;;;;;4999738;28;89139;-39
2021/12/22 08:01:32;;;;;;;34.40;19.77;;;-4.40;99.90;;;;;;4998844;28;90044;-39
2021/12/22 08:03:58;;;;;;;23.83;19.30;;;-4.40;99.90;;;;;;4997887;28;89655;-34
2021/12/22 08:06:24;;;;;;;25.13;21.08;;;-4.30;99.90;;;;;;4954518;28;89719;-38
2021/12/22 08:08:49;;;;;;;32.55;21.17;;;-4.30;99.90;;;;;;4998371;28;88493;-35
2021/12/22 08:11:15;;;;;;;29.60;20.60;;;-4.30;99.90;;;;;;4998911;28;90251;-44
2021/12/22 08:13:41;;;;;;;35.78;21.13;;;-4.30;99.90;;;;;;4998288;28;89487;-40
2021/12/22 08:16:06;;;;;;;27.63;19.95;;;-4.30;99.90;;;;;;4997470;28;90239;-42
2021/12/22 08:18:32;;;;;;;30.05;23.20;;;-4.20;99.90;;;;;;4998979;28;89044;-40
2021/12/22 08:20:58;;;;;;;33.65;22.95;;;-4.20;99.90;;;;;;4998608;28;89938;-33
2021/12/22 08:23:23;;;;;;;28.50;22.27;;;-4.20;99.90;;;;;;4996897;28;89595;-40
2021/12/22 08:25:49;;;;;;;31.85;21.60;;;-4.10;99.90;;;;;;4996902;28;89867;-39
2021/12/22 08:28:15;;;;;;;30.85;21.55;;;-4.10;99.90;;;;;;4997548;28;88150;-34
2021/12/22 08:30:41;;;;;;;34.00;22.27;;;-4.10;99.90;;;;;;4996390;28;90224;-35
2021/12/22 08:33:15;;;;;;;27.02;21.38;;;-4.00;99.90;;;;;;4995313;28;91027;-40
2021/12/22 08:38:50;;;;;;;30.23;20.65;;;-4.00;99.90;;;;;;4997895;28;90806;-35
2021/12/22 08:41:10;;;;;;;28.80;20.75;;;-3.90;99.90;;;;;;4998355;28;90280;-41
2021/12/22 08:43:36;;;;;;;28.98;22.23;;;-3.90;99.90;;;;;;4998515;28;89909;-37
2021/12/22 08:46:02;;;;;;;29.38;23.02;;;-3.80;99.90;;;;;;4998183;28;89428;-37
2021/12/22 08:48:28;;;;;;;32.85;22.77;;;-3.80;99.90;;;;;;4998751;28;88825;-40
2021/12/22 08:50:53;;;;;;;30.33;23.35;;;-3.80;99.90;;;;;;4997613;28;90199;-38
2021/12/22 08:53:19;;;;;;;29.52;23.15;;;-3.70;99.90;;;;;;5014754;27;89731;-38
2021/12/22 08:55:44;;;;;;;28.50;20.98;;;-3.70;99.90;;;;;;5001424;28;91427;-36
2021/12/22 08:58:10;;;;;;;29.38;21.23;;;-3.60;99.90;;;;;;5001706;28;89288;-35
2021/12/22 09:00:38;;;;;;;29.50;23.02;;;-3.60;99.90;;;;;;5001612;28;90086;-39
2021/12/22 09:03:03;;;;;;;26.83;21.63;;;-3.50;99.90;;;;;;4999990;28;89616;-34
2021/12/22 09:05:29;;;;;;;31.98;21.90;;;-3.40;99.90;;;;;;5001833;28;90137;-43
2021/12/22 09:07:55;;;;;;;26.98;20.75;;;-3.40;99.90;;;;;;5001644;28;88641;-37
2021/12/22 09:10:20;;;;;;;31.95;23.52;;;-3.30;99.90;;;;;;5001510;28;89815;-38
2021/12/22 09:12:47;;;;;;;29.00;22.00;;;-3.30;99.90;;;;;;5001789;28;89554;-33
2021/12/22 09:15:13;;;;;;;33.78;24.15;;;-3.20;99.90;;;;;;5001443;28;89521;-41
2021/12/22 09:17:39;;;;;;;31.67;20.33;;;-3.20;99.90;;;;;;5001490;28;88865;-39
2021/12/22 09:20:05;;;;;;;34.75;25.30;;;-3.20;99.90;;;;;;5001881;28;90973;-39
2021/12/22 09:22:31;;;;;;;31.88;21.98;;;-3.10;99.90;;;;;;5001112;28;91065;-39
2021/12/22 09:24:56;;;;;;;34.85;23.02;;;-3.00;99.90;;;;;;5001754;28;90989;-41
2021/12/22 09:27:22;;;;;;;32.20;23.70;;;-2.90;99.90;;;;;;5001051;28;89386;-38
2021/12/22 09:29:47;;;;;;;31.98;23.05;;;-2.90;99.90;;;;;;5001155;28;90610;-44
2021/12/22 09:32:15;;;;;;;33.97;24.38;;;-2.80;99.90;;;;;;5001050;28;90048;-40
2021/12/22 09:34:42;;;;;;;33.58;24.63;;;-2.80;99.90;;;;;;5001059;28;89361;-37
2021/12/22 09:37:08;;;;;;;37.35;24.15;;;-2.70;99.90;;;;;;5000907;28;88871;-38
2021/12/22 09:39:33;;;;;;;29.27;24.38;;;-2.70;99.90;;;;;;5001819;28;90801;-36
2021/12/22 09:41:59;;;;;;;34.03;25.13;;;-2.60;99.90;;;;;;5000649;28;89613;-38
2021/12/22 09:44:31;;;;;;;29.92;24.63;;;-2.60;99.90;;;;;;5001331;28;89780;-35
2021/12/22 09:46:57;;;;;;;30.77;21.20;;;-2.60;99.90;;;;;;5000711;28;87987;-40
2021/12/22 09:50:10;;;;;;;37.30;25.75;;;-2.60;99.90;;;;;;5000659;28;91247;-34
2021/12/22 09:52:21;;;;;;;25.25;21.88;;;-2.50;99.90;;;;;;4995013;28;90074;-38
2021/12/22 09:54:52;;;;;;;30.85;22.73;;;-2.40;99.90;;;;;;5000790;28;89857;-37
2021/12/22 09:57:19;;;;;;;30.63;24.23;;;-2.30;99.90;;;;;;5000822;28;88955;-43
2021/12/22 09:59:47;;;;;;;30.13;24.05;;;-2.30;99.90;;;;;;4999920;28;90513;-43
2021/12/22 10:02:14;;;;;;;35.33;26.80;;;-2.30;99.90;;;;;;5000435;28;89441;-34
2021/12/22 10:04:40;;;;;;;30.90;24.43;;;-2.20;99.90;;;;;;5000509;28;91670;-42
2021/12/22 10:07:08;;;;;;;31.27;25.08;;;-2.20;99.90;;;;;;5000441;28;88881;-41
2021/12/22 10:09:42;;;;;;;42.38;26.88;;;-2.10;99.90;;;;;;5000607;28;90161;-40
2021/12/22 10:12:20;;;;;;;31.05;23.83;;;-2.10;99.90;;;;;;5000185;28;90705;-39
2021/12/22 10:14:50;;;;;;;33.93;24.93;;;-2.10;99.90;;;;;;5000398;28;90446;-39
2021/12/22 10:17:46;;;;;;;30.55;24.40;;;-2.10;99.90;;;;;;5000369;28;89206;-40
2021/12/22 10:20:15;;;;;;;34.38;23.77;;;-2.00;99.90;;;;;;4970337;28;90330;-38
2021/12/22 10:22:43;;;;;;;36.53;24.85;;;-2.00;99.90;;;;;;5000494;28;89418;-41
2021/12/22 10:25:11;;;;;;;39.65;25.33;;;-1.90;99.90;;;;;;5000554;28;89578;-34
2021/12/22 10:27:40;;;;;;;39.28;25.23;;;-1.90;99.90;;;;;;5000713;28;88565;-39
2021/12/22 10:30:30;;;;;;;31.48;26.13;;;-1.90;99.90;;;;;;5000606;28;90186;-35
2021/12/22 10:33:21;;;;;;;39.70;26.63;;;-1.80;99.90;;;;;;4999988;28;91562;-39
2021/12/22 10:35:53;;;;;;;40.00;27.02;;;-1.70;99.90;;;;;;4999632;28;89944;-40
2021/12/22 10:38:22;;;;;;;34.42;27.58;;;-1.60;99.90;;;;;;5000061;28;89033;-40
2021/12/22 10:40:51;;;;;;;48.20;27.60;;;-1.50;99.90;;;;;;5000635;28;90440;-37
2021/12/22 10:43:19;;;;;;;32.80;26.48;;;-1.50;99.90;;;;;;5000167;28;89581;-35
2021/12/22 10:45:48;;;;;;;41.35;26.27;;;-1.50;99.90;;;;;;4999802;28;89537;-40
2021/12/22 10:51:05;;;;;;;39.38;24.88;;;-1.30;99.90;;;;;;5000061;28;92061;-38
2021/12/22 10:53:39;;;;;;;34.00;24.33;;;-1.20;99.90;;;;;;4999623;28;89411;-36
2021/12/22 10:56:04;;;;;;;40.47;26.55;;;-1.10;99.90;;;;;;5000397;28;90133;-41
2021/12/22 10:58:34;;;;;;;33.95;23.10;;;-1.00;99.90;;;;;;4999660;28;88292;-36
2021/12/22 11:01:06;;;;;;;34.15;22.88;;;-0.90;99.90;;;;;;4999269;28;91263;-38
2021/12/22 11:03:53;;;;;;;32.63;23.40;;;-0.80;99.90;;;;;;4998803;28;90248;-39
2021/12/22 11:06:28;;;;;;;37.05;23.45;;;-0.70;99.90;;;;;;5000152;28;90832;-43
2021/12/22 11:09:02;;;;;;;31.92;21.50;;;-0.70;99.90;;;;;;5000008;28;88539;-38
2021/12/22 11:11:38;;;;;;;21.67;17.65;;;-0.70;99.90;;;;;;4999600;28;90120;-40
2021/12/22 11:14:10;;;;;;;38.67;25.15;;;-0.60;99.90;;;;;;4999770;28;90671;-36
2021/12/22 11:16:58;;;;;;;33.28;22.33;;;-0.50;99.90;;;;;;4998509;28;89218;-41
2021/12/22 11:19:27;;;;;;;28.97;22.07;;;-0.50;99.90;;;;;;4999404;28;89278;-40
2021/12/22 11:22:07;;;;;;;32.30;22.50;;;-0.40;99.90;;;;;;4998223;28;89810;-38
2021/12/22 11:24:35;;;;;;;26.65;20.00;;;-0.30;99.90;;;;;;4998973;28;89292;-34
2021/12/22 11:27:02;;;;;;;26.20;18.55;;;-0.20;99.90;;;;;;4999356;28;89769;-37
2021/12/22 11:29:28;;;;;;;21.17;17.67;;;-0.10;99.90;;;;;;4999684;28;89887;-40
2021/12/22 11:34:50;;;;;;;27.45;18.42;;;0.00;99.90;;;;;;5084497;22;88119;-38
2021/12/22 11:37:28;;;;;;;28.42;19.52;;;0.10;99.90;;;;;;5031692;28;89754;-37
2021/12/22 11:39:59;;;;;;;32.40;18.13;;;0.20;99.90;;;;;;5023461;28;88453;-34
2021/12/22 11:42:30;;;;;;;22.88;17.42;;;0.20;99.90;;;;;;5022803;28;89064;-38
2021/12/22 11:45:05;;;;;;;23.35;17.77;;;0.30;99.90;;;;;;5006486;28;90068;-38
2021/12/22 11:47:35;;;;;;;27.02;18.35;;;0.30;99.90;;;;;;4993557;28;89715;-41
2021/12/22 11:50:03;;;;;;;26.13;18.77;;;0.40;99.90;;;;;;4986060;28;88284;-36
2021/12/22 11:52:42;;;;;;;25.17;17.02;;;0.50;99.90;;;;;;5011778;28;88805;-35
2021/12/22 11:55:07;;;;;;;23.80;16.75;;;0.60;99.90;;;;;;5020825;28;90446;-39
2021/12/22 11:57:33;;;;;;;24.88;18.13;;;0.60;99.90;;;;;;5018461;28;90766;-36
2021/12/22 12:00:19;;;;;;;22.83;18.35;;;0.60;99.90;;;;;;5015536;28;88703;-35
2021/12/22 12:02:45;;;;;;;22.40;17.38;;;0.60;99.90;;;;;;5009472;28;90162;-41
2021/12/22 12:05:16;;;;;;;21.10;17.73;;;0.60;99.90;;;;;;5006014;28;89872;-41
2021/12/22 12:07:53;;;;;;;24.42;17.45;;;0.50;99.90;;;;;;5019433;28;90344;-36
2021/12/22 12:11:06;;;;;;;24.52;19.05;;;0.50;99.90;;;;;;5024277;28;87838;-35
2021/12/22 13:22:45;;;;;;;35.70;28.13;;;1.20;99.90;;;;;;4899799;28;88446;-41
2021/12/22 13:25:54;;;;;;;30.05;20.60;;;1.40;99.90;;;;;;4941974;27;89457;-37
2021/12/22 13:28:22;;;;;;;24.55;18.52;;;1.40;99.90;;;;;;4981957;28;87650;-37
2021/12/22 13:30:55;;;;;;;32.50;22.23;;;1.30;99.90;;;;;;4981533;28;88492;-34
2021/12/22 13:33:28;;;;;;;30.08;21.65;;;1.20;99.90;;;;;;4966171;28;90046;-37
2021/12/22 13:36:15;;;;;;;26.05;19.13;;;1.10;99.90;;;;;;4982527;28;89494;-33
2021/12/22 13:38:55;;;;;;;22.75;18.52;;;1.00;99.90;;;;;;4981245;28;87535;-41
2021/12/22 13:41:30;;;;;;;28.80;20.23;;;0.80;99.90;;;;;;4982190;28;88106;-39
2021/12/22 13:44:01;;;;;;;25.83;19.88;;;0.70;99.90;;;;;;4949501;28;90229;-38
2021/12/22 13:46:36;;;;;;;27.30;21.52;;;0.70;99.90;;;;;;4872810;28;89618;-40
2021/12/22 13:49:05;;;;;;;25.95;21.10;;;0.60;99.90;;;;;;4943186;28;88707;-37
2021/12/22 13:51:37;;;;;;;23.80;20.92;;;0.60;99.90;;;;;;4977777;28;88240;-37
2021/12/22 13:54:12;;;;;;;25.77;21.13;;;0.60;99.90;;;;;;4981349;28;89759;-35
2021/12/22 13:56:39;;;;;;;27.50;21.85;;;0.60;99.90;;;;;;4981174;28;88179;-37
2021/12/22 13:59:07;;;;;;;26.30;20.88;;;0.50;99.90;;;;;;4981117;28;87726;-40
2021/12/22 14:01:37;;;;;;;26.00;21.33;;;0.60;99.90;;;;;;4981985;28;87523;-43
2021/12/22 14:04:02;;;;;;;23.90;20.08;;;0.50;99.90;;;;;;4970106;28;90434;-37
2021/12/22 14:06:33;;;;;;;25.00;20.58;;;0.50;99.90;;;;;;4967835;28;89586;-43
2021/12/22 14:09:09;;;;;;;26.73;20.58;;;0.50;99.90;;;;;;4963263;28;88449;-41
2021/12/22 14:11:43;;;;;;;29.45;23.15;;;0.50;99.90;;;;;;4963416;28;87594;-35
2021/12/22 14:14:35;;;;;;;23.05;19.75;;;0.50;99.90;;;;;;4982091;28;90476;-36